Time;durP1;ratioP1;P1;durP2;ratioP2;P2;SDS_P1;SDS_P2;PMS_P1;PMS_P2;Temp;Humidity;BMP_temperature;BMP_pressure;BME280_temperature;BME280_humidity;BME280_pressure;Samples;Min_cycle;Max_cycle;Signal;HPM_P1;HPM_P2
2023/09/22 00:01:25;;;;;;;11.43;6.85;;;;;;;22.63;51.47;92073.31;6185332;23;20017;-93
2023/09/22 00:03:51;;;;;;;8.05;6.78;;;;;;;22.61;51.44;92073.88;6161390;23;20056;-92
2023/09/22 00:06:17;;;;;;;11.02;6.50;;;;;;;22.62;51.47;92075.34;6160763;23;20020;-92
2023/09/22 00:08:43;;;;;;;9.48;6.47;;;;;;;22.63;51.51;92078.81;6161574;23;20024;-93
2023/09/22 00:11:10;;;;;;;8.93;6.20;;;;;;;22.62;51.54;92083.59;6135356;23;20028;-93
2023/09/22 00:13:36;;;;;;;7.45;6.30;;;;;;;22.62;51.51;92080.13;6136645;23;20020;-92
2023/09/22 00:16:02;;;;;;;9.60;6.82;;;;;;;22.62;51.42;92093.88;6161362;23;20023;-93
2023/09/22 00:18:28;;;;;;;9.38;6.10;;;;;;;22.62;51.50;92080.84;6136342;23;20024;-93
2023/09/22 00:20:54;;;;;;;7.60;5.88;;;;;;;22.61;51.32;92084.91;6161331;23;20020;-94
2023/09/22 00:23:20;;;;;;;9.20;6.43;;;;;;;22.61;51.33;92089.69;6161138;23;20024;-92
2023/09/22 00:25:45;;;;;;;8.73;6.35;;;;;;;22.61;51.41;92086.94;6186629;23;20091;-94
2023/09/22 00:28:11;;;;;;;7.75;6.35;;;;;;;22.60;51.36;92090.97;6135716;23;20617;-93
2023/09/22 00:30:36;;;;;;;7.47;5.88;;;;;;;22.61;51.13;92084.91;6162228;23;20452;-93
2023/09/22 00:33:02;;;;;;;8.52;5.80;;;;;;;22.62;51.07;92082.88;6163441;23;20017;-93
2023/09/22 00:35:28;;;;;;;10.18;6.53;;;;;;;22.61;51.26;92086.94;6187391;23;20411;-93
2023/09/22 00:37:54;;;;;;;10.32;7.13;;;;;;;22.60;51.48;92088.22;6163536;23;20472;-92
2023/09/22 00:40:19;;;;;;;8.82;6.28;;;;;;;22.59;51.12;92082.00;6125687;23;20291;-93
2023/09/22 00:42:45;;;;;;;8.80;5.82;;;;;;;22.58;51.59;92078.50;6126575;23;20064;-92
2023/09/22 00:45:11;;;;;;;8.18;5.47;;;;;;;22.59;51.38;92090.25;6102321;23;20033;-94
2023/09/22 00:47:36;;;;;;;7.53;5.70;;;;;;;22.59;51.25;92093.00;6102487;23;20049;-93
2023/09/22 00:50:02;;;;;;;7.30;5.88;;;;;;;22.58;51.22;92094.31;6101507;23;20022;-93
2023/09/22 00:52:28;;;;;;;7.55;5.30;;;;;;;22.57;51.46;92099.09;6101080;23;20065;-94
2023/09/22 00:54:54;;;;;;;9.73;5.53;;;;;;;22.57;51.41;92090.81;6102081;23;20026;-92
2023/09/22 00:57:21;;;;;;;7.53;5.82;;;;;;;22.57;51.50;92104.59;6102544;23;20446;-94
2023/09/22 00:59:47;;;;;;;8.93;5.45;;;;;;;22.57;51.48;92101.09;6102667;23;20112;-92
2023/09/22 01:02:12;;;;;;;8.27;6.13;;;;;;;22.57;51.38;92112.13;6098867;23;20025;-94
2023/09/22 01:04:38;;;;;;;8.05;6.43;;;;;;;22.57;51.35;92109.38;6102593;23;20024;-93
2023/09/22 01:07:03;;;;;;;8.52;5.88;;;;;;;22.55;51.44;92107.19;6125887;23;20036;-93
2023/09/22 01:09:29;;;;;;;8.18;5.50;;;;;;;22.58;51.40;92111.56;6100765;23;20100;-93
2023/09/22 01:11:54;;;;;;;7.78;5.35;;;;;;;22.57;51.38;92115.59;6147297;23;20166;-93
2023/09/22 01:14:20;;;;;;;6.53;4.93;;;;;;;22.57;51.31;92117.63;6136735;23;20039;-94
2023/09/22 01:16:46;;;;;;;6.68;5.15;;;;;;;22.57;51.52;92117.63;6163709;23;20463;-93
2023/09/22 01:19:16;;;;;;;6.57;4.97;;;;;;;22.57;51.31;92118.38;6137882;23;20385;-94
2023/09/22 01:21:41;;;;;;;6.90;5.53;;;;;;;22.56;51.54;92116.91;6163060;23;20085;-92
2023/09/22 01:24:07;;;;;;;6.72;4.80;;;;;;;22.58;51.34;92136.34;6162899;23;20033;-93
2023/09/22 01:26:33;;;;;;;7.57;5.88;;;;;;;22.57;51.28;92131.41;6138886;23;20074;-93
2023/09/22 01:28:58;;;;;;;6.75;5.05;;;;;;;22.54;51.34;92138.78;6138810;23;20016;-91
2023/09/22 01:31:23;;;;;;;7.88;5.75;;;;;;;22.54;51.24;92133.25;6162048;23;20075;-92
2023/09/22 01:33:49;;;;;;;7.13;5.65;;;;;;;22.54;51.54;92141.53;6163295;23;20021;-94
2023/09/22 01:36:14;;;;;;;6.75;4.97;;;;;;;22.54;51.58;92138.78;6159280;23;20020;-92
2023/09/22 01:38:40;;;;;;;8.15;5.60;;;;;;;22.57;51.54;92151.41;6162476;23;20440;-93
2023/09/22 01:41:06;;;;;;;7.63;4.90;;;;;;;22.57;51.20;92150.69;6162184;23;20471;-93
2023/09/22 01:43:34;;;;;;;6.07;4.68;;;;;;;22.53;51.39;92159.34;6163488;23;20071;-93
2023/09/22 01:46:01;;;;;;;8.27;5.20;;;;;;;22.56;51.31;92165.75;6136679;23;20047;-93
2023/09/22 01:48:26;;;;;;;6.15;4.93;;;;;;;22.58;51.37;92177.66;6136996;23;20060;-93
2023/09/22 01:50:52;;;;;;;7.93;5.28;;;;;;;22.56;51.63;92165.75;6187507;23;20044;-94
2023/09/22 01:53:19;;;;;;;7.70;5.35;;;;;;;22.54;51.60;92171.81;6186184;23;20169;-92
2023/09/22 01:55:46;;;;;;;9.57;5.32;;;;;;;22.56;51.46;92176.75;6137913;23;20029;-93
2023/09/22 01:58:12;;;;;;;6.68;4.70;;;;;;;22.57;51.31;92181.72;6161736;23;20020;-93
2023/09/22 02:00:38;;;;;;;6.47;4.68;;;;;;;22.56;51.50;92177.50;6162586;23;20087;-93
2023/09/22 02:03:05;;;;;;;6.43;4.75;;;;;;;22.56;51.51;92177.50;6135434;23;20025;-93
2023/09/22 02:05:31;;;;;;;5.90;4.68;;;;;;;22.55;51.33;92178.78;6162043;23;20021;-93
2023/09/22 02:07:57;;;;;;;6.72;4.95;;;;;;;22.56;51.38;92185.75;6162432;23;20407;-94
2023/09/22 02:10:22;;;;;;;6.15;4.63;;;;;;;22.57;51.33;92175.47;6161086;23;20425;-93
2023/09/22 02:12:48;;;;;;;6.68;4.82;;;;;;;22.54;51.23;92171.09;6161386;23;20051;-94
2023/09/22 02:15:13;;;;;;;6.20;4.40;;;;;;;22.54;51.17;92165.59;6160786;23;20028;-93
2023/09/22 02:17:40;;;;;;;6.07;4.53;;;;;;;22.50;51.36;92160.50;6162328;23;20452;-94
2023/09/22 02:20:17;;;;;;;5.82;4.43;;;;;;;22.50;51.23;92163.25;6161177;23;20508;-93
2023/09/22 02:22:47;;;;;;;8.43;5.35;;;;;;;22.51;51.22;92153.69;6141940;23;20087;-92
2023/09/22 02:25:15;;;;;;;6.43;4.90;;;;;;;22.51;51.13;92150.94;6186383;23;20366;-93
2023/09/22 02:27:41;;;;;;;6.70;4.47;;;;;;;22.52;51.29;92146.16;6161561;23;20258;-94
2023/09/22 02:30:08;;;;;;;6.90;4.93;;;;;;;22.51;51.43;92156.47;6160618;23;20016;-92
2023/09/22 02:32:34;;;;;;;8.05;4.43;;;;;;;22.51;51.28;92158.47;6186894;23;20031;-93
2023/09/22 02:35:00;;;;;;;8.55;5.18;;;;;;;22.51;51.05;92155.72;6162531;23;20360;-93
2023/09/22 02:37:25;;;;;;;5.88;4.97;;;;;;;22.49;51.37;92169.34;6161812;23;20023;-92
2023/09/22 02:39:51;;;;;;;6.30;4.70;;;;;;;22.49;51.31;92180.34;6162148;23;20017;-92
2023/09/22 02:42:17;;;;;;;9.00;4.75;;;;;;;22.49;51.37;92183.84;6161320;23;20044;-93
2023/09/22 02:44:42;;;;;;;8.13;4.78;;;;;;;22.51;51.16;92189.50;6162052;23;20017;-92
2023/09/22 02:47:08;;;;;;;7.75;5.30;;;;;;;22.49;51.36;92189.34;6160896;23;20024;-93
2023/09/22 02:49:33;;;;;;;9.35;5.18;;;;;;;22.53;51.30;92175.16;6161109;23;20020;-94
2023/09/22 02:51:58;;;;;;;4.97;3.95;;;;;;;22.50;51.30;92195.59;6137043;23;20016;-94
2023/09/22 02:54:24;;;;;;;5.60;4.63;;;;;;;22.52;51.27;92190.94;6135833;23;20017;-93
2023/09/22 02:56:49;;;;;;;5.60;4.95;;;;;;;22.50;51.38;92181.81;6162115;23;20456;-94
2023/09/22 02:59:15;;;;;;;7.63;4.78;;;;;;;22.52;51.55;92182.69;6161525;23;20520;-93
2023/09/22 03:01:41;;;;;;;7.13;4.85;;;;;;;22.52;51.48;92192.97;6137334;23;20181;-93
2023/09/22 03:04:09;;;;;;;7.65;5.15;;;;;;;22.49;51.44;92186.59;6161497;23;20036;-94
2023/09/22 03:06:35;;;;;;;5.15;4.57;;;;;;;22.52;51.42;92195.72;6161908;23;20016;-94
2023/09/22 03:09:00;;;;;;;5.68;4.45;;;;;;;22.49;51.44;92210.66;6160164;23;20341;-93
2023/09/22 03:11:27;;;;;;;5.60;4.70;;;;;;;22.52;51.54;92212.25;6159164;23;20023;-94
2023/09/22 03:13:52;;;;;;;4.60;3.95;;;;;;;22.50;51.57;92209.34;6136606;23;20092;-94
2023/09/22 03:16:18;;;;;;;5.93;4.40;;;;;;;22.48;51.53;92225.72;6160637;23;20480;-94
2023/09/22 03:18:44;;;;;;;6.78;4.40;;;;;;;22.50;51.45;92234.13;6161120;23;20198;-93
2023/09/22 03:21:09;;;;;;;6.50;4.70;;;;;;;22.48;51.47;92256.72;6159685;23;20017;-95
2023/09/22 03:23:35;;;;;;;7.90;5.05;;;;;;;22.48;51.59;92242.22;6161320;23;20013;-93
2023/09/22 03:26:03;;;;;;;6.10;4.40;;;;;;;22.48;51.64;92258.75;6161177;23;20032;-93
2023/09/22 03:28:29;;;;;;;5.40;4.30;;;;;;;22.49;51.50;92257.47;6160151;23;20103;-92
2023/09/22 03:30:54;;;;;;;6.88;4.28;;;;;;;22.49;51.49;92249.19;6160945;23;20028;-93
2023/09/22 03:33:22;;;;;;;6.35;4.35;;;;;;;22.48;51.81;92242.97;6131484;23;20032;-91
2023/09/22 03:35:47;;;;;;;5.78;4.38;;;;;;;22.47;51.71;92235.25;6155394;23;20385;-93
2023/09/22 03:38:15;;;;;;;5.47;4.15;;;;;;;22.47;51.63;92243.53;6130844;23;20373;-93
2023/09/22 03:40:42;;;;;;;5.13;4.07;;;;;;;22.45;51.72;92238.59;6132234;23;20095;-94
2023/09/22 03:43:08;;;;;;;6.15;4.55;;;;;;;22.44;51.77;92230.88;6130515;23;20068;-93
2023/09/22 03:45:34;;;;;;;4.90;4.07;;;;;;;22.45;51.67;92238.59;6131904;23;20020;-92
2023/09/22 03:47:59;;;;;;;6.47;3.95;;;;;;;22.45;51.67;92237.84;6131404;23;20044;-93
2023/09/22 03:50:25;;;;;;;6.68;4.63;;;;;;;22.44;51.66;92258.41;6129929;23;20385;-93
2023/09/22 03:52:50;;;;;;;5.22;4.13;;;;;;;22.44;51.57;92261.91;6130807;23;20115;-92
2023/09/22 03:55:16;;;;;;;5.80;4.55;;;;;;;22.44;51.81;92258.41;6129798;23;20037;-94
2023/09/22 03:57:41;;;;;;;7.78;4.50;;;;;;;22.43;51.86;92265.22;6130297;23;20021;-92
2023/09/22 04:00:17;;;;;;;4.75;3.60;;;;;;;22.46;51.76;92273.09;6132162;23;20413;-93
2023/09/22 04:02:43;;;;;;;7.28;4.60;;;;;;;22.45;51.89;92262.63;6158071;23;20013;-93
2023/09/22 04:05:08;;;;;;;5.95;3.92;;;;;;;22.46;51.60;92261.34;6132798;23;20060;-93
2023/09/22 04:07:35;;;;;;;5.35;4.20;;;;;;;22.44;51.59;92256.41;6133040;23;20013;-94
2023/09/22 04:10:03;;;;;;;6.13;3.97;;;;;;;22.44;51.68;92264.66;6132682;23;20040;-94
2023/09/22 04:12:28;;;;;;;6.88;5.00;;;;;;;22.43;51.60;92270.72;6132165;23;20056;-92
2023/09/22 04:14:55;;;;;;;6.13;4.00;;;;;;;22.45;51.64;92274.38;6133020;23;20040;-93
2023/09/22 04:17:20;;;;;;;5.35;3.50;;;;;;;22.47;51.44;92285.56;6109571;23;20021;-95
2023/09/22 04:19:46;;;;;;;5.15;3.67;;;;;;;22.46;51.46;92275.13;6132334;23;20009;-92
2023/09/22 04:22:16;;;;;;;7.70;3.58;;;;;;;22.45;51.70;92268.88;6132689;23;20013;-93
2023/09/22 04:24:47;;;;;;;7.28;3.95;;;;;;;22.45;51.50;92270.91;6133659;23;20025;-93
2023/09/22 04:27:14;;;;;;;4.97;3.67;;;;;;;22.45;51.67;92270.91;6134224;23;20025;-93
2023/09/22 04:29:39;;;;;;;5.50;3.72;;;;;;;22.45;51.60;92259.88;6132714;23;20017;-95
2023/09/22 04:32:05;;;;;;;4.68;3.53;;;;;;;22.46;51.72;92253.81;6131531;23;20504;-93
2023/09/22 04:34:30;;;;;;;4.50;3.85;;;;;;;22.47;51.65;92258.03;6132734;23;20069;-93
2023/09/22 04:36:57;;;;;;;3.40;2.88;;;;;;;22.45;51.55;92279.16;6133275;23;20079;-93
2023/09/22 04:39:23;;;;;;;4.88;3.42;;;;;;;22.46;51.70;92289.63;6131923;23;20047;-93
2023/09/22 04:41:48;;;;;;;5.05;3.45;;;;;;;22.52;51.63;92284.59;6157710;23;20453;-93
2023/09/22 04:44:15;;;;;;;4.72;3.58;;;;;;;22.46;51.56;92281.34;6131169;23;20021;-94
2023/09/22 04:46:41;;;;;;;4.43;3.47;;;;;;;22.44;51.53;92292.19;6133511;23;20024;-93
2023/09/22 04:49:07;;;;;;;3.85;3.17;;;;;;;22.47;51.58;92298.59;6131815;23;20025;-94
2023/09/22 04:51:33;;;;;;;5.10;3.35;;;;;;;22.47;51.40;92293.81;6158367;23;20329;-92
2023/09/22 04:53:59;;;;;;;4.25;3.30;;;;;;;22.48;51.56;92295.28;6133044;23;20017;-93
2023/09/22 04:56:24;;;;;;;5.15;3.40;;;;;;;22.48;51.59;92305.56;6157843;23;20657;-93
2023/09/22 04:58:53;;;;;;;3.55;2.95;;;;;;;22.46;51.67;92299.91;6108841;23;20025;-94
2023/09/22 05:01:18;;;;;;;4.03;3.17;;;;;;;22.45;51.69;92310.19;6133426;23;20365;-94
2023/09/22 05:03:45;;;;;;;4.72;3.13;;;;;;;22.45;51.76;92310.19;6132069;23;20025;-94
2023/09/22 05:06:10;;;;;;;4.35;3.13;;;;;;;22.47;51.46;92304.13;6132209;23;20015;-95
2023/09/22 05:08:39;;;;;;;4.53;2.63;;;;;;;22.47;51.49;92295.84;6132033;23;20017;-93
2023/09/22 05:11:08;;;;;;;3.80;2.78;;;;;;;22.45;51.67;92303.94;6132531;23;20099;-93
2023/09/22 05:13:34;;;;;;;13.88;3.33;;;;;;;22.44;51.76;92305.97;6133310;23;20021;-93
2023/09/22 05:16:10;;;;;;;3.20;2.70;;;;;;;22.44;51.83;92319.00;6133414;23;20040;-93
2023/09/22 05:18:36;;;;;;;3.95;3.00;;;;;;;22.44;51.60;92335.53;6132880;23;20019;-94
2023/09/22 05:21:02;;;;;;;4.05;2.88;;;;;;;22.44;51.63;92328.00;6133007;23;20088;-95
2023/09/22 05:23:32;;;;;;;3.63;2.67;;;;;;;22.45;51.60;92323.22;6132448;23;20582;-92
2023/09/22 05:25:58;;;;;;;;;;;;;;;22.47;51.83;92320.63;6132942;23;20016;-93
2023/09/22 05:28:23;;;;;;;2.83;2.47;;;;;;;22.45;51.72;92326.72;6131686;23;19916;-94
2023/09/22 05:30:50;;;;;;;4.15;3.08;;;;;;;22.42;51.65;92333.34;6132829;23;20021;-93
2023/09/22 05:33:15;;;;;;;4.20;2.25;;;;;;;22.44;51.59;92324.50;6108816;23;20052;-92
2023/09/22 05:35:41;;;;;;;3.67;2.80;;;;;;;22.45;51.61;92337.00;6132738;23;20021;-93
2023/09/22 05:38:06;;;;;;;3.90;2.42;;;;;;;22.44;51.75;92332.78;6126662;23;20018;-93
2023/09/22 05:40:32;;;;;;;3.42;2.28;;;;;;;22.44;51.50;92324.50;6129655;23;20352;-93
2023/09/22 05:42:58;;;;;;;3.50;2.42;;;;;;;22.44;51.66;92341.75;6132413;23;20021;-92
2023/09/22 05:45:23;;;;;;;3.53;2.47;;;;;;;22.46;51.59;92360.47;6157365;23;20013;-93
2023/09/22 05:47:50;;;;;;;3.03;2.42;;;;;;;22.45;51.61;92351.50;6132490;23;20017;-93
2023/09/22 05:50:16;;;;;;;3.30;2.70;;;;;;;22.46;51.71;92335.69;6131816;23;20297;-93
2023/09/22 05:52:42;;;;;;;3.60;2.75;;;;;;;22.46;51.39;92352.97;6095624;23;20026;-94
2023/09/22 05:55:08;;;;;;;4.15;2.35;;;;;;;22.46;51.55;92354.97;6095646;23;20037;-92
2023/09/22 05:57:34;;;;;;;4.75;2.38;;;;;;;22.45;51.63;92354.25;6097232;23;20084;-94
2023/09/22 06:00:00;;;;;;;3.10;2.60;;;;;;;22.45;51.42;92348.75;6096901;23;20480;-93
2023/09/22 06:02:26;;;;;;;3.67;2.53;;;;;;;22.45;51.45;92365.25;6096723;23;20093;-92
2023/09/22 06:04:55;;;;;;;2.67;1.77;;;;;;;22.49;51.51;92390.38;6096546;23;20061;-93
2023/09/22 06:07:21;;;;;;;3.80;2.20;;;;;;;22.48;51.32;92399.22;6095662;23;20018;-93
2023/09/22 06:09:46;;;;;;;2.55;2.03;;;;;;;22.48;51.32;92407.47;6096444;23;20568;-93
2023/09/22 06:12:11;;;;;;;3.22;2.08;;;;;;;22.48;51.55;92394.44;6096146;23;20030;-94
2023/09/22 06:14:39;;;;;;;2.05;1.85;;;;;;;22.46;51.60;92383.25;6096774;23;20025;-92
2023/09/22 06:17:04;;;;;;;4.85;2.20;;;;;;;22.46;51.47;92369.47;6097231;23;20026;-94
2023/09/22 06:19:30;;;;;;;3.35;2.10;;;;;;;22.49;51.42;92379.38;6073395;23;20068;-92
2023/09/22 06:21:56;;;;;;;3.10;2.67;;;;;;;22.48;51.59;92379.94;6098732;23;20026;-92
2023/09/22 06:24:22;;;;;;;3.33;1.98;;;;;;;22.47;51.43;92387.47;6144757;23;20021;-94
2023/09/22 06:26:47;;;;;;;2.42;1.75;;;;;;;22.49;51.43;92381.41;6133644;23;20017;-93
2023/09/22 06:29:13;;;;;;;2.38;1.75;;;;;;;22.49;51.40;92381.41;6132180;23;20461;-94
2023/09/22 06:31:38;;;;;;;2.42;1.80;;;;;;;22.45;51.64;92370.78;6132186;23;20020;-94
2023/09/22 06:34:07;;;;;;;3.42;1.95;;;;;;;22.47;51.35;92392.25;6132300;23;20032;-92
2023/09/22 06:36:34;;;;;;;1.75;1.60;;;;;;;22.48;51.40;92382.69;6167133;23;20092;-92
2023/09/22 06:39:04;;;;;;;1.42;1.33;;;;;;;22.48;51.63;92377.91;6168505;23;20025;-92
2023/09/22 06:41:30;;;;;;;1.95;1.67;;;;;;;22.48;51.43;92385.44;6142584;23;20040;-93
2023/09/22 06:43:55;;;;;;;2.10;1.60;;;;;;;22.48;51.42;92397.19;6140728;23;20468;-94
2023/09/22 06:46:21;;;;;;;2.78;1.67;;;;;;;22.47;51.45;92392.97;6164056;23;20025;-92
2023/09/22 06:48:48;;;;;;;2.90;1.60;;;;;;;22.46;51.34;92393.53;6140648;23;20044;-92
2023/09/22 06:51:18;;;;;;;1.95;1.75;;;;;;;22.48;51.42;92399.22;6157295;23;20025;-92
2023/09/22 06:53:47;;;;;;;2.13;1.52;;;;;;;22.46;51.12;92402.53;6141284;23;20079;-92
2023/09/22 06:56:13;;;;;;;1.63;1.30;;;;;;;22.46;51.19;92410.06;6150202;23;20017;-93
2023/09/22 06:58:40;;;;;;;1.88;1.48;;;;;;;22.47;51.52;92406.00;6123104;23;20040;-92
2023/09/22 07:01:12;;;;;;;1.60;1.10;;;;;;;22.46;51.52;92412.81;6133399;23;20019;-93
2023/09/22 07:03:38;;;;;;;1.42;1.23;;;;;;;22.47;51.51;92425.28;6133334;23;20029;-93
2023/09/22 07:06:08;;;;;;;2.08;1.48;;;;;;;22.49;51.46;92439.22;6132777;23;20020;-94
2023/09/22 07:08:34;;;;;;;3.00;1.90;;;;;;;22.49;51.39;92433.72;6141154;23;20017;-92
2023/09/22 07:11:05;;;;;;;2.05;1.45;;;;;;;22.48;51.37;92435.00;6133928;23;20017;-93
2023/09/22 07:13:31;;;;;;;2.90;1.52;;;;;;;22.48;51.46;92430.25;6133064;23;20434;-93
2023/09/22 07:15:57;;;;;;;1.80;1.42;;;;;;;22.46;51.47;92423.81;6133688;23;20116;-93
2023/09/22 07:18:25;;;;;;;2.90;1.40;;;;;;;22.46;51.41;92423.81;6158826;23;20095;-94
2023/09/22 07:20:53;;;;;;;4.75;1.50;;;;;;;22.46;51.40;92424.56;6159363;23;20092;-93
2023/09/22 07:23:23;;;;;;;1.60;1.50;;;;;;;22.48;51.36;92429.50;6134222;23;20021;-93
2023/09/22 07:26:11;;;;;;;3.50;1.38;;;;;;;22.47;51.49;92439.78;6133602;23;20017;-93
2023/09/22 07:28:36;;;;;;;4.65;1.30;;;;;;;22.50;51.48;92432.44;6109415;23;20349;-92
2023/09/22 07:31:18;;;;;;;2.17;1.38;;;;;;;22.45;51.44;92423.09;6133614;23;20041;-93
2023/09/22 07:33:43;;;;;;;4.10;1.80;;;;;;;22.50;51.33;92421.41;6142329;23;20034;-94
2023/09/22 07:36:09;;;;;;;1.73;0.82;;;;;;;22.46;50.66;92426.59;6141972;23;20563;-94
2023/09/22 07:38:35;;;;;;;1.70;1.02;;;;;;;22.36;50.65;92439.47;6141603;23;20021;-93
2023/09/22 07:41:03;;;;;;;0.90;0.57;;;;;;;22.33;50.37;92440.59;6172295;23;20021;-94
2023/09/22 07:45:53;;;;;;;2.40;1.00;;;;;;;22.18;50.53;92417.38;6257702;22;20024;-92
2023/09/22 07:48:19;;;;;;;1.17;0.88;;;;;;;22.13;50.20;92403.81;6201916;23;20026;-92
2023/09/22 07:50:46;;;;;;;2.45;0.73;;;;;;;21.99;50.33;92408.84;6174430;23;20008;-93
2023/09/22 07:53:12;;;;;;;7.45;0.80;;;;;;;21.96;50.46;92425.72;6176382;23;20120;-92
2023/09/22 07:55:41;;;;;;;4.38;0.70;;;;;;;22.00;50.44;92439.84;6188481;23;20028;-92
2023/09/22 07:58:06;;;;;;;5.22;0.90;;;;;;;22.01;50.20;92446.84;6202115;23;20016;-94
2023/09/22 08:00:44;;;;;;;24.63;2.03;;;;;;;21.97;50.43;92432.69;6175903;23;20036;-93
2023/09/22 08:03:09;;;;;;;12.57;1.77;;;;;;;21.94;50.47;92428.31;6229908;23;20339;-93
2023/09/22 08:05:35;;;;;;;12.32;1.58;;;;;;;21.95;50.33;92427.75;6179065;23;20077;-92
2023/09/22 08:08:02;;;;;;;11.68;1.50;;;;;;;22.01;50.23;92439.31;6178146;23;20015;-92
2023/09/22 08:10:30;;;;;;;6.63;1.42;;;;;;;22.01;50.36;92444.81;6202972;23;20012;-92
2023/09/22 08:12:56;;;;;;;9.82;1.42;;;;;;;22.08;50.36;92451.59;6202987;23;20106;-92
2023/09/22 08:15:32;;;;;;;16.85;2.05;;;;;;;22.06;50.33;92441.13;6200213;23;20088;-93
2023/09/22 08:17:58;;;;;;;18.15;1.92;;;;;;;22.11;50.03;92444.94;6143997;23;20539;-93
2023/09/22 08:20:27;;;;;;;11.10;1.40;;;;;;;22.12;50.09;92444.38;6139008;23;20088;-92
2023/09/22 08:22:54;;;;;;;6.13;1.40;;;;;;;22.14;50.28;92433.56;6109058;23;20025;-92
2023/09/22 08:25:20;;;;;;;8.73;1.40;;;;;;;22.14;50.16;92436.31;6104777;23;20433;-92
2023/09/22 08:27:48;;;;;;;28.75;3.78;;;;;;;22.17;50.21;92448.22;6108687;23;20081;-93
2023/09/22 08:30:23;;;;;;;16.75;2.30;;;;;;;22.19;49.93;92451.16;6103984;23;20014;-93
2023/09/22 08:32:49;;;;;;;11.35;1.70;;;;;;;22.15;49.83;92448.78;6108677;23;20022;-93
2023/09/22 08:35:17;;;;;;;4.30;0.98;;;;;;;22.08;49.89;92454.34;6082295;23;20036;-94
2023/09/22 08:37:45;;;;;;;7.57;0.82;;;;;;;22.07;49.89;92439.84;6083547;23;20074;-94
2023/09/22 08:40:17;;;;;;;6.53;0.73;;;;;;;22.03;49.96;92463.53;6048008;23;20119;-94
2023/09/22 08:42:45;;;;;;;4.63;1.02;;;;;;;22.00;50.03;92462.63;6053707;23;20081;-93
2023/09/22 08:45:11;;;;;;;2.47;1.00;;;;;;;21.95;50.15;92460.78;6072305;23;20031;-93
2023/09/22 08:47:40;;;;;;;4.60;0.80;;;;;;;21.93;50.25;92462.63;6070333;23;20025;-92
2023/09/22 08:50:12;;;;;;;5.15;0.75;;;;;;;21.92;50.19;92470.13;6093940;23;20019;-93
2023/09/22 08:52:42;;;;;;;6.65;0.73;;;;;;;21.95;49.99;92471.78;6058674;23;20039;-92
2023/09/22 08:55:11;;;;;;;4.23;0.90;;;;;;;22.01;49.95;92472.34;6022115;23;20050;-93
2023/09/22 08:57:39;;;;;;;4.60;0.90;;;;;;;22.08;50.03;92476.34;6049732;23;20241;-93
2023/09/22 09:00:11;;;;;;;4.03;1.38;;;;;;;22.11;50.01;92483.47;6046322;23;20097;-93
2023/09/22 09:02:39;;;;;;;3.90;0.93;;;;;;;22.11;49.84;92483.47;6070503;23;20094;-92
2023/09/22 09:05:21;;;;;;;2.30;1.00;;;;;;;22.10;49.90;92491.00;6056226;23;20479;-94
2023/09/22 09:07:48;;;;;;;4.40;0.90;;;;;;;22.12;49.85;92488.44;6133571;23;20309;-93
2023/09/22 09:10:32;;;;;;;4.05;1.00;;;;;;;22.14;49.77;92501.63;6111005;23;20033;-93
2023/09/22 09:13:01;;;;;;;4.57;1.13;;;;;;;22.12;50.00;92504.22;6111401;23;20037;-93
2023/09/22 09:15:27;;;;;;;7.78;1.30;;;;;;;22.14;49.94;92507.13;6118690;23;20072;-94
2023/09/22 09:18:08;;;;;;;8.13;2.10;;;;;;;22.14;49.96;92502.38;6147016;23;20030;-92
2023/09/22 09:20:36;;;;;;;5.88;1.13;;;;;;;22.17;50.01;92509.50;6157431;23;20021;-92
2023/09/22 09:23:16;;;;;;;6.32;0.95;;;;;;;22.15;50.12;92506.59;6154996;23;20045;-93
2023/09/22 09:25:54;;;;;;;18.77;1.40;;;;;;;22.20;50.02;92502.16;6157486;23;20021;-93
2023/09/22 09:28:20;;;;;;;5.40;1.30;;;;;;;22.25;50.06;92495.00;6127583;23;20014;-93
2023/09/22 09:30:58;;;;;;;3.83;0.90;;;;;;;22.21;50.29;92489.88;6096741;23;20406;-93
2023/09/22 09:33:25;;;;;;;2.30;0.80;;;;;;;22.20;50.02;92496.66;6109356;23;20017;-94
2023/09/22 09:35:52;;;;;;;11.00;1.60;;;;;;;22.19;50.17;92506.22;6118928;23;20495;-93
2023/09/22 09:38:18;;;;;;;4.35;0.88;;;;;;;22.23;50.01;92501.06;6104207;23;20105;-93
2023/09/22 09:40:43;;;;;;;3.72;1.27;;;;;;;22.23;49.85;92490.03;6110747;23;20029;-92
2023/09/22 09:43:12;;;;;;;10.00;0.98;;;;;;;22.22;50.04;92505.09;6105644;23;20480;-94
2023/09/22 09:45:56;;;;;;;6.53;0.90;;;;;;;22.24;50.10;92513.53;6109200;23;20048;-93
2023/09/22 09:48:22;;;;;;;2.58;0.88;;;;;;;22.23;49.98;92512.81;6093260;23;20029;-94
2023/09/22 09:50:53;;;;;;;3.88;0.75;;;;;;;22.23;50.03;92509.31;6142731;23;20026;-94
2023/09/22 09:53:38;;;;;;;4.20;0.77;;;;;;;22.23;50.09;92520.31;6100991;23;20022;-93
2023/09/22 09:56:05;;;;;;;2.53;1.02;;;;;;;22.23;49.95;92512.06;6132217;23;20114;-94
2023/09/22 09:58:32;;;;;;;3.38;0.70;;;;;;;22.24;49.95;92483.25;6100709;23;20020;-93
2023/09/22 10:01:02;;;;;;;2.95;0.90;;;;;;;22.22;50.02;92488.56;6174282;23;20526;-93
2023/09/22 10:03:29;;;;;;;;;;;;;;;22.27;49.96;92478.66;6130755;23;20013;-93
2023/09/22 10:05:57;;;;;;;5.43;0.80;;;;;;;22.24;50.29;92466.72;6167772;23;20328;-93
2023/09/22 10:08:24;;;;;;;6.30;0.80;;;;;;;22.22;50.18;92472.78;6176157;23;20033;-94
2023/09/22 10:10:51;;;;;;;5.00;0.70;;;;;;;22.21;50.17;92489.88;6172126;23;20044;-93
2023/09/22 10:13:18;;;;;;;3.58;0.80;;;;;;;22.21;49.99;92478.84;6145243;23;20028;-94
2023/09/22 10:15:51;;;;;;;2.10;1.13;;;;;;;22.24;50.23;92469.47;6148375;23;20012;-93
2023/09/22 10:18:17;;;;;;;5.80;1.45;;;;;;;22.25;50.24;92476.44;6178641;23;20031;-94
2023/09/22 10:20:46;;;;;;;0.80;0.70;;;;;;;22.22;50.01;92478.28;6149519;23;20142;-94
2023/09/22 10:23:27;;;;;;;2.27;0.80;;;;;;;22.25;50.08;92492.25;6147569;23;20359;-93
2023/09/22 10:26:04;;;;;;;5.50;1.35;;;;;;;22.26;50.06;92496.47;6148523;23;20019;-94
2023/09/22 10:28:30;;;;;;;2.95;0.93;;;;;;;22.25;50.26;92489.47;6194176;23;20045;-93
2023/09/22 10:30:59;;;;;;;2.33;0.70;;;;;;;22.27;50.17;92490.41;6165127;23;20036;-94
2023/09/22 10:33:30;;;;;;;2.22;1.25;;;;;;;22.27;50.21;92500.69;6183498;23;20100;-93
2023/09/22 10:36:00;;;;;;;2.63;0.68;;;;;;;22.24;50.21;92497.00;6141363;23;20531;-94
2023/09/22 10:38:26;;;;;;;1.92;0.73;;;;;;;22.24;50.07;92502.53;6118818;23;20136;-93
2023/09/22 10:41:03;;;;;;;2.47;0.68;;;;;;;22.21;50.35;92498.13;6140018;23;20377;-94
2023/09/22 10:43:37;;;;;;;5.00;0.95;;;;;;;22.22;50.21;92507.84;6163885;23;20081;-94
2023/09/22 10:46:05;;;;;;;1.23;0.90;;;;;;;22.27;50.21;92506.19;6113854;23;20096;-95
2023/09/22 10:48:34;;;;;;;2.88;0.90;;;;;;;22.27;50.11;92495.91;6114249;23;20028;-93
2023/09/22 10:51:02;;;;;;;1.25;0.98;;;;;;;22.26;50.32;92493.72;6139228;23;20408;-94
2023/09/22 10:53:32;;;;;;;2.45;0.90;;;;;;;22.26;50.43;92493.72;6139498;23;20433;-94
2023/09/22 10:56:00;;;;;;;2.60;0.90;;;;;;;22.27;50.29;92482.13;6166271;23;20025;-93
2023/09/22 10:58:28;;;;;;;2.85;1.00;;;;;;;22.26;50.27;92455.88;6164843;23;20085;-93
2023/09/22 11:00:55;;;;;;;1.20;0.82;;;;;;;22.22;50.58;92441.78;6167489;23;20024;-93
2023/09/22 11:03:27;;;;;;;8.38;0.90;;;;;;;22.25;50.57;92442.69;6144889;23;20012;-94
2023/09/22 11:06:00;;;;;;;1.02;0.88;;;;;;;22.23;50.32;92446.72;6194808;23;20029;-93
2023/09/22 11:08:26;;;;;;;2.75;1.02;;;;;;;22.26;50.64;92441.41;6139179;23;20084;-93
2023/09/22 11:10:55;;;;;;;2.63;1.10;;;;;;;22.23;50.58;92440.50;6195229;23;20662;-93
2023/09/22 11:13:26;;;;;;;1.60;0.90;;;;;;;22.20;50.47;92438.84;6128723;23;20100;-93
2023/09/22 11:15:59;;;;;;;;;;;;;;;22.24;50.41;92419.94;6178402;23;20045;-93
2023/09/22 11:18:34;;;;;;;1.02;0.93;;;;;;;22.20;50.49;92438.84;6150692;23;19912;-93
2023/09/22 11:21:20;;;;;;;0.70;0.70;;;;;;;22.23;50.53;92457.75;6196683;23;20032;-94
2023/09/22 11:23:45;;;;;;;1.58;0.93;;;;;;;22.25;50.73;92461.97;6146922;23;20028;-94
2023/09/22 11:26:17;;;;;;;1.48;1.20;;;;;;;22.13;50.53;92467.88;6118068;23;20021;-94
2023/09/22 11:28:46;;;;;;;6.03;2.42;;;;;;;22.14;50.71;92466.59;6168946;23;20051;-93
2023/09/22 11:31:13;;;;;;;6.20;2.85;;;;;;;22.06;50.90;92476.19;6143823;23;20020;-94
2023/09/22 11:33:43;;;;;;;17.45;3.33;;;;;;;21.98;51.06;92470.66;6140234;23;20024;-94
2023/09/22 11:36:12;;;;;;;5.70;2.17;;;;;;;21.92;51.15;92478.41;6126074;23;20017;-94
2023/09/22 11:38:45;;;;;;;7.00;2.17;;;;;;;21.92;51.43;92491.41;6122786;23;20013;-93